787  
UXUS97 KREV 221431  
SRGREV  
 
SOARING FORECAST  
NATIONAL WEATHER SERVICE - RENO NV  
700 AM PST TUE JAN 22 2019  
 
THIS SOARING FORECAST IS FOR THE EASTERN SIERRA AND WESTERN NEVADA  
WITH SPECIFIC INDICES FOR THE GREATER RENO AREA.  
 
THIS FORECAST IS PREPARED DAILY BY 700 AM AND IS NOT UPDATED.  
 
FOR CURRENT FLIGHT CONDITIONS...FORECASTS...AND ADVISORIES...ACCESS  
YOUR LOCAL BRIEFING OUTLET OR FLIGHT SERVICE STATION.  
 
*******************************************************************  
FORECASTED LOCAL INDICES FOR RENO: TODAY YESTERDAY  
FORECASTED MAX TEMP AT RENO (DEG F)..... 43 44  
FORECASTED TRIGGER TEMPERATURE (DEG F).. 41 36  
EXCEEDED YESTERDAY BY -155 AM PST  
FORECASTED MAXIMUM ALTITUDE (FT MSL).... 9000 11000  
FORECASTED SOARING INDEX (FPM).......... 270 480  
FORECASTED K-INDEX.........VALID 18Z.... -22 25  
FORECASTED K-INDEX.........VALID 00Z.... -3 23  
FORECASTED LIFTED INDEX....VALID 18Z.... 15 -2  
FORECASTED LIFTED INDEX....VALID 00Z.... 11 -6  
 
AFTERNOON WINDS ALOFT FORECAST  
MSL (FT) WIND/TEMP  
9000 0216/-02  
10000 -2122/-02  
12000 3535/-03  
14000 3536/-07  
16000 3537/-11  
18000 3541/-16  
24000 3550/-28  
30000 3363/-43  
34000 3365/-53  
39000 3276/-64  
 
SLIDE MOUNTAIN DATA:  
DATE TIME TEMP DEWPT RH WIND (MPH)  
(F) (F) | DIR SPEED GUST  
2019-01-22 05:20 11 7 80 | 000 0 0  
2019-01-22 05:00 10 7 82 | 000 0 0  
2019-01-22 04:50 10 7 82 | 000 0 0  
2019-01-22 04:30 10 7 82 | 000 0 0  
 
SIERRA CREST 8700 FT DATA:  
DATE TIME TEMP RH WIND  
DIR SPEED GUST  
2019-01-22 0600 9 95 078 33 37  
2019-01-22 0545 9 95 080 33 38  
2019-01-22 0530 9 95 081 31 36  
2019-01-22 0515 9 95 077 31 35  
 
RENO TAF FORECAST:  
KRNO 221126Z 2212/2312 VRB04KT P6SM FEW110 SCT200  
FM222200 14004KT P6SM FEW110 SCT200  
FM230200 VRB03KT P6SM SCT110 SCT200  
 
CARSON CITY TAF FORECAST:  
KCXP 221126Z 2212/2312 VRB03KT P6SM FEW100 SCT200  
FM222200 10009KT P6SM FEW100 SCT200  
FM230200 VRB03KT P6SM SCT100 SCT200  
 
OUTLOOK FOR THE RENO-CARSON CITY-MINDEN AREA:   
WEDNESDAY
 
SUNNY. HIGHS 45 TO 50. LIGHT WINDS.  
 
SUNRISE AND SUNSET  
JANUARY 22 2019.......SUNRISE 714 AM PST SUNSET 507 PM PST  
JANUARY 23 2019.......SUNRISE 714 AM PST SUNSET 509 PM PST  
 
CLICK HERE TO GO TO PREVIOUS BULLETINS.

The Nexlab NV Page
The Nexlab CA Page Main Text Page